»·PEaware :: UPS19 KSFO-KLAS

UPS19 :: KSFO-KLAS

FLIGHT INFORMATION

Flight Status: Arrived
Operator:
United Parcel Service
More flights by this operator :: More flights under this callsign
Pilot: Tim M. (868)
Aircraft: Unknown
(B748)
More flights by this aircraft type
Origin: KSFO San Francisco Intl
United States
Destination: KLAS McCarran Intl
United States
More flights between these airports :: More routes between these airports
Route: +WESLA4 NTELL Q162 KENNO TACUS SUNST4
File this flight plan on PilotEdge
Remarks:
Altitude:
(Current/Filed)
33,000ft
Speed:
(Current/Filed)
493kts
Departed: 18-May-20 02:01 PM
Arrived: 18-May-20 03:11 PM
Distance/Time
Traveled:
360nm/1:10
Distance/Time
To Go:
Arrived

Flight Plot

Page will automatically refresh every two minutes.


Map Options




Map Legend


Flown Route
Filed Route
Departure Airport
Arrival Airport
Navaid (VOR, NDB)
Fix

Horizontal Profiles

Position Reports

Time Latitude Longitude Heading Altitude Ground
Speed
18-May-20 12:55 37.635586 -122.387335 70 26ft 0kts
18-May-20 12:56 37.635586 -122.387335 70 26ft 0kts
18-May-20 12:57 37.635586 -122.387335 70 26ft 0kts
18-May-20 12:58 37.635586 -122.387335 70 26ft 0kts
18-May-20 12:59 37.635586 -122.387335 70 26ft 0kts
18-May-20 13:00 37.635586 -122.387335 70 26ft 0kts
18-May-20 13:01 37.635586 -122.387335 70 26ft 0kts
18-May-20 13:02 37.635586 -122.387335 70 26ft 0kts
18-May-20 13:03 37.635586 -122.387335 70 26ft 0kts
18-May-20 13:04 37.635586 -122.387335 70 26ft 0kts
18-May-20 13:05 37.635586 -122.387335 70 26ft 0kts
18-May-20 13:06 37.635586 -122.387335 70 26ft 0kts
18-May-20 13:07 37.635586 -122.387335 70 26ft 0kts
18-May-20 13:08 37.635586 -122.387335 70 26ft 0kts
18-May-20 13:09 37.635586 -122.387335 70 26ft 0kts
18-May-20 13:10 37.635586 -122.387335 70 26ft 0kts
18-May-20 13:11 37.635586 -122.387335 70 26ft 0kts
18-May-20 13:12 37.635586 -122.387335 70 26ft 0kts
18-May-20 13:13 37.635586 -122.387335 70 26ft 0kts
18-May-20 13:14 37.635586 -122.387335 70 26ft 0kts
18-May-20 13:15 37.635586 -122.387335 70 26ft 0kts
18-May-20 13:16 37.635586 -122.387335 70 26ft 0kts
18-May-20 13:17 37.635586 -122.387335 70 26ft 0kts
18-May-20 13:18 37.635586 -122.387335 70 26ft 0kts
18-May-20 13:19 37.635586 -122.387335 70 26ft 0kts
18-May-20 13:20 37.635586 -122.387335 70 26ft 0kts
18-May-20 13:21 37.635586 -122.387335 70 26ft 0kts
18-May-20 13:22 37.635586 -122.387335 70 26ft 0kts
18-May-20 13:23 37.635586 -122.387335 70 26ft 0kts
18-May-20 13:24 37.635586 -122.387335 70 26ft 0kts
18-May-20 13:25 37.635223 -122.389180 15 26ft 0kts
18-May-20 13:26 37.635591 -122.387315 70 26ft 0kts
18-May-20 13:27 37.635591 -122.387315 70 26ft 0kts
18-May-20 13:28 37.635591 -122.387315 70 26ft 0kts
18-May-20 13:29 37.635591 -122.387315 70 26ft 0kts
18-May-20 13:30 37.635591 -122.387315 70 26ft 0kts
18-May-20 13:31 37.635591 -122.387315 70 26ft 0kts
18-May-20 13:32 37.635591 -122.387315 70 26ft 0kts
18-May-20 13:33 37.635527 -122.387536 69 26ft 2kts
18-May-20 13:34 37.635392 -122.388025 27 26ft 0kts
18-May-20 13:35 37.635040 -122.388144 37 26ft 1kts
18-May-20 13:36 37.634617 -122.388677 46 26ft 2kts
18-May-20 13:37 37.634386 -122.389305 79 26ft 2kts
18-May-20 13:38 37.634213 -122.390037 65 26ft 2kts
18-May-20 13:39 37.633960 -122.390748 63 26ft 2kts
18-May-20 13:40 37.633664 -122.391432 52 26ft 2kts
18-May-20 13:41 37.633165 -122.391775 4 26ft 1kts
18-May-20 13:42 37.632595 -122.391598 337 26ft 2kts
18-May-20 13:43 37.632057 -122.391367 12 26ft 1kts
18-May-20 13:44 37.631709 -122.391864 66 26ft 2kts
18-May-20 13:45 37.631461 -122.392585 65 26ft 2kts
18-May-20 13:46 37.631333 -122.392920 62 26ft 0kts
18-May-20 13:47 37.631333 -122.392920 62 26ft 0kts
18-May-20 13:48 37.631333 -122.392920 62 26ft 0kts
18-May-20 13:49 37.631333 -122.392920 62 26ft 0kts
18-May-20 13:50 37.631333 -122.392920 62 26ft 0kts
18-May-20 13:52 37.631334 -122.392917 62 26ft 0kts
18-May-20 13:53 37.629438 -122.391394 118 26ft 18kts
18-May-20 13:54 37.627058 -122.385729 118 26ft 17kts
18-May-20 13:55 37.624061 -122.378539 118 26ft 22kts
18-May-20 13:56 37.621263 -122.371834 118 26ft 20kts
18-May-20 13:57 37.618813 -122.365979 117 26ft 17kts
18-May-20 13:58 37.616494 -122.360420 118 26ft 19kts
18-May-20 13:59 37.614930 -122.356839 152 26ft 0kts
18-May-20 14:00 37.614929 -122.356839 152 26ft 0kts
18-May-20 14:01 37.614301 -122.359040 298 26ft 41kts
18-May-20 14:02 37.630892 -122.397564 296 1025ft 149kts
18-May-20 14:03 37.650940 -122.446878 294 2275ft 183kts
18-May-20 14:04 37.667289 -122.519150 251 3103ft 254kts
18-May-20 14:05 37.604733 -122.542735 163 6161ft 273kts
18-May-20 14:06 37.534213 -122.500141 158 9064ft 288kts
18-May-20 14:06 37.476308 -122.451965 133 10715ft 335kts
18-May-20 14:08 37.409739 -122.323999 114 13155ft 400kts
18-May-20 14:09 37.380063 -122.185356 107 16431ft 420kts
18-May-20 14:09 37.356329 -122.064067 108 18742ft 436kts
18-May-20 14:10 37.325919 -121.913331 109 21102ft 454kts
18-May-20 14:12 37.289466 -121.729638 111 24021ft 476kts
18-May-20 14:12 37.261815 -121.593411 112 25980ft 488kts
18-May-20 14:13 37.227345 -121.425518 113 27841ft 504kts
18-May-20 14:14 37.191712 -121.253203 114 29618ft 510kts
18-May-20 14:15 37.155814 -121.081002 114 31262ft 513kts
18-May-20 14:16 37.119547 -120.908382 115 32797ft 512kts
18-May-20 14:17 37.083006 -120.735803 116 33013ft 512kts
18-May-20 14:18 37.046303 -120.563798 116 33011ft 512kts
18-May-20 14:19 37.009166 -120.391087 116 33017ft 512kts
18-May-20 14:20 36.972388 -120.219869 116 33028ft 512kts
18-May-20 14:21 36.934599 -120.047401 117 33029ft 512kts
18-May-20 14:22 36.912120 -119.870088 90 33032ft 557kts
18-May-20 14:23 36.965243 -119.684350 74 33024ft 578kts
18-May-20 14:24 37.026648 -119.498830 75 33019ft 574kts
18-May-20 14:25 37.087137 -119.313800 75 33016ft 574kts
18-May-20 14:26 37.146756 -119.128404 76 33010ft 571kts
18-May-20 14:27 37.205933 -118.944041 76 32999ft 571kts
18-May-20 14:28 37.264444 -118.758684 77 32953ft 568kts
18-May-20 14:29 37.291597 -118.568197 95 32857ft 546kts
18-May-20 14:30 37.307482 -118.379813 94 32808ft 543kts
18-May-20 14:31 37.324977 -118.191987 94 32803ft 542kts
18-May-20 14:32 37.341316 -118.003800 94 32813ft 541kts
18-May-20 14:33 37.345580 -117.818022 107 32829ft 522kts
18-May-20 14:34 37.328427 -117.638320 107 32839ft 517kts
18-May-20 14:35 37.311984 -117.458859 107 32843ft 518kts
18-May-20 14:36 37.282369 -117.286451 127 32842ft 485kts
18-May-20 14:37 37.213471 -117.144559 135 32857ft 472kts
18-May-20 14:38 37.141150 -117.005931 134 32879ft 475kts
18-May-20 14:39 37.059726 -116.881177 151 32869ft 451kts
18-May-20 14:40 36.960103 -116.795936 156 32756ft 422kts
18-May-20 14:41 36.865071 -116.717024 156 30523ft 409kts
18-May-20 14:42 36.774455 -116.632917 147 28686ft 407kts
18-May-20 14:43 36.692628 -116.535507 146 26811ft 399kts
18-May-20 14:44 36.613135 -116.441914 146 24987ft 387kts
18-May-20 14:45 36.535592 -116.351770 146 23202ft 376kts
18-May-20 14:46 36.460036 -116.263810 144 21400ft 370kts
18-May-20 14:47 36.391664 -116.167881 140 19623ft 368kts
18-May-20 14:48 36.325209 -116.074223 140 17893ft 357kts
18-May-20 14:49 36.259991 -115.983146 139 16600ft 343kts
18-May-20 14:50 36.201594 -115.898133 130 16015ft 312kts
18-May-20 14:51 36.167590 -115.798028 119 15055ft 316kts
18-May-20 14:52 36.139070 -115.708647 120 14197ft 311kts
18-May-20 14:53 36.107369 -115.610222 119 13258ft 305kts
18-May-20 14:54 36.076114 -115.513603 119 12331ft 300kts
18-May-20 14:55 36.045294 -115.418994 118 11434ft 288kts
18-May-20 14:56 36.026502 -115.325325 99 10438ft 289kts
18-May-20 14:57 36.020394 -115.227680 100 9293ft 279kts
18-May-20 14:58 36.013870 -115.133444 99 8453ft 270kts
18-May-20 14:59 36.007954 -115.040644 98 8020ft 270kts
18-May-20 15:00 36.002453 -114.947847 99 7974ft 273kts
18-May-20 15:01 35.996568 -114.851847 99 6277ft 278kts
18-May-20 15:02 36.039357 -114.784052 8 5140ft 266kts
18-May-20 15:03 36.101020 -114.813903 290 4932ft 249kts
18-May-20 15:04 36.088533 -114.883295 242 4643ft 211kts
18-May-20 15:05 36.075334 -114.945965 261 4442ft 167kts
18-May-20 15:06 36.075043 -115.002797 262 4229ft 166kts
18-May-20 15:07 36.073960 -115.061398 262 3277ft 172kts
18-May-20 15:08 36.073650 -115.119281 266 2341ft 167kts
18-May-20 15:09 36.073622 -115.156961 269 2194ft 46kts
18-May-20 15:10 36.074649 -115.161283 357 2194ft 3kts
18-May-20 15:11 36.077561 -115.161317 0 2194ft 0kts
18-May-20 15:12 36.077562 -115.161317 0 2194ft 0kts
18-May-20 15:13 36.078030 -115.159696 90 2194ft 7kts
18-May-20 15:14 36.078028 -115.154379 89 2194ft 21kts
18-May-20 15:15 36.077782 -115.147588 93 2194ft 18kts
18-May-20 15:16 36.077525 -115.141693 89 2194ft 15kts
18-May-20 15:17 36.077555 -115.136713 88 2194ft 13kts
18-May-20 15:18 36.077542 -115.132428 91 2194ft 11kts
18-May-20 15:19 36.077548 -115.128217 90 2194ft 15kts
18-May-20 15:20 36.080139 -115.126439 1 2194ft 12kts
18-May-20 15:21 36.081853 -115.125871 86 2194ft 0kts
18-May-20 15:22 36.081853 -115.125871 86 2194ft 0kts

Navigation Log

Ident Type
Flight plan parsing failed, navigation log unavailable